Time;durP1;ratioP1;P1;durP2;ratioP2;P2;SDS_P1;SDS_P2;PMS_P1;PMS_P2;Temp;Humidity;BMP_temperature;BMP_pressure;BME280_temperature;BME280_humidity;BME280_pressure;Samples;Min_cycle;Max_cycle;Signal;HPM_P1;HPM_P2
2022/10/06 00:01:17;;;;;;;63.28;27.10;;;;;;;12.14;100.00;93593.13;5026470;28;20044;-78
2022/10/06 00:03:44;;;;;;;61.40;27.67;;;;;;;12.14;100.00;93587.88;5035958;28;20036;-79
2022/10/06 00:06:12;;;;;;;62.08;28.70;;;;;;;12.12;100.00;93584.75;5034610;28;20033;-79
2022/10/06 00:08:39;;;;;;;64.90;29.83;;;;;;;12.09;100.00;93590.50;5053796;28;20025;-79
2022/10/06 00:11:06;;;;;;;68.07;30.20;;;;;;;12.06;100.00;93593.69;5049093;28;20094;-78
2022/10/06 00:13:32;;;;;;;74.97;31.08;;;;;;;12.05;100.00;93586.88;5053601;28;20504;-78
2022/10/06 00:15:58;;;;;;;72.60;31.77;;;;;;;12.03;100.00;93586.34;5054107;28;20029;-79
2022/10/06 00:18:26;;;;;;;69.80;30.48;;;;;;;12.01;100.00;93588.47;5019306;28;20053;-78
2022/10/06 00:20:59;;;;;;;71.25;31.98;;;;;;;11.98;100.00;93578.47;5051521;28;20558;-78
2022/10/06 00:23:27;;;;;;;77.05;33.97;;;;;;;12.00;100.00;93586.88;5034369;28;20524;-78
2022/10/06 00:25:53;;;;;;;78.13;33.95;;;;;;;11.98;100.00;93583.72;5034806;28;20033;-78
2022/10/06 00:28:19;;;;;;;83.30;33.13;;;;;;;11.94;100.00;93577.47;5053873;28;20025;-78
2022/10/06 00:30:45;;;;;;;78.55;33.88;;;;;;;11.93;100.00;93581.91;5036041;28;20102;-78
2022/10/06 00:33:15;;;;;;;85.75;33.53;;;;;;;11.93;100.00;93584.53;5052569;28;20045;-78
2022/10/06 00:35:42;;;;;;;76.85;36.50;;;;;;;11.92;100.00;93579.56;5044613;28;20034;-78
2022/10/06 00:38:11;;;;;;;83.28;34.10;;;;;;;11.95;100.00;93584.28;5054714;28;20499;-78
2022/10/06 00:40:44;;;;;;;81.82;37.08;;;;;;;11.91;100.00;93575.34;5052726;28;20032;-78
2022/10/06 00:43:29;;;;;;;;;;;;;;;11.88;100.00;93577.47;5018277;28;20044;-78
2022/10/06 00:45:55;;;;;;;91.90;35.60;;;;;;;11.85;100.00;93575.34;5014168;28;19966;-78
2022/10/06 00:48:25;;;;;;;97.95;37.08;;;;;;;11.83;100.00;93569.59;5035945;28;20037;-78
2022/10/06 00:50:55;;;;;;;84.82;35.33;;;;;;;11.82;100.00;93578.50;5053127;28;20033;-78
2022/10/06 00:53:23;;;;;;;85.65;36.25;;;;;;;11.80;100.00;93578.00;5041339;28;20445;-77
2022/10/06 00:55:48;;;;;;;80.68;33.90;;;;;;;11.79;100.00;93576.41;5044686;28;20037;-78
2022/10/06 00:58:15;;;;;;;81.80;35.72;;;;;;;11.77;100.00;93572.47;5018428;28;20048;-78
2022/10/06 01:00:43;;;;;;;80.85;35.90;;;;;;;11.74;100.00;93568.56;5053012;28;20390;-78
2022/10/06 01:03:16;;;;;;;88.32;37.03;;;;;;;11.73;100.00;93571.44;5024335;28;20033;-78
2022/10/06 01:05:48;;;;;;;76.10;33.67;;;;;;;11.71;100.00;93569.09;5051711;28;20371;-78
2022/10/06 01:08:14;;;;;;;;;;;;;;;11.72;100.00;93569.88;5046307;28;20040;-78
2022/10/06 01:10:42;;;;;;;82.50;32.63;;;;;;;11.70;100.00;93562.25;5029292;28;19919;-78
2022/10/06 01:13:10;;;;;;;79.30;34.15;;;;;;;11.68;100.00;93564.38;5033975;28;20064;-78
2022/10/06 01:15:55;;;;;;;84.65;35.25;;;;;;;11.66;100.00;93563.84;5034137;28;20068;-78
2022/10/06 01:18:25;;;;;;;85.00;35.15;;;;;;;11.65;100.00;93557.03;5015951;28;20142;-78
2022/10/06 01:21:02;;;;;;;90.72;35.28;;;;;;;11.63;100.00;93559.16;5033857;28;20052;-78
2022/10/06 01:23:30;;;;;;;90.32;37.90;;;;;;;11.63;100.00;93556.53;5034643;28;20028;-78
2022/10/06 01:25:58;;;;;;;89.93;37.53;;;;;;;11.61;100.00;93556.00;5027961;28;20450;-78
2022/10/06 01:28:24;;;;;;;89.60;37.13;;;;;;;11.61;100.00;93558.63;5027890;28;20119;-78
2022/10/06 01:30:53;;;;;;;94.10;39.15;;;;;;;11.58;100.00;93554.69;5015125;28;20258;-78
2022/10/06 01:33:21;;;;;;;90.47;37.85;;;;;;;11.57;100.00;93552.31;5029869;28;20513;-78
2022/10/06 01:35:49;;;;;;;78.10;35.90;;;;;;;11.54;100.00;93552.88;5015324;28;20486;-78
2022/10/06 01:38:16;;;;;;;87.13;36.80;;;;;;;11.53;100.00;93553.91;5034689;28;20076;-78
2022/10/06 01:40:44;;;;;;;83.60;36.05;;;;;;;11.48;100.00;93552.06;5033748;28;20586;-78
2022/10/06 01:43:09;;;;;;;96.15;36.55;;;;;;;11.44;100.00;93559.72;5034105;28;20047;-78
2022/10/06 01:45:35;;;;;;;90.13;35.97;;;;;;;11.43;100.00;93558.13;5051338;28;20117;-77
2022/10/06 01:48:01;;;;;;;84.43;35.97;;;;;;;11.43;100.00;93558.13;5029729;28;20045;-78
2022/10/06 01:50:26;;;;;;;86.32;36.47;;;;;;;11.41;100.00;93551.56;5022524;28;20487;-78
2022/10/06 01:52:54;;;;;;;84.82;36.35;;;;;;;11.39;100.00;93551.06;5033198;28;20036;-78
2022/10/06 01:55:20;;;;;;;82.88;36.65;;;;;;;11.36;100.00;93555.00;5059993;28;20029;-78
2022/10/06 01:57:46;;;;;;;79.47;33.97;;;;;;;11.31;100.00;93557.63;5029283;28;20075;-78
2022/10/06 02:00:12;;;;;;;79.57;32.28;;;;;;;11.28;100.00;93555.53;5045554;28;20115;-78
2022/10/06 02:02:42;;;;;;;73.18;32.42;;;;;;;11.27;100.00;93564.44;5018919;28;20017;-78
2022/10/06 02:05:08;;;;;;;67.90;31.17;;;;;;;11.26;100.00;93568.13;5037457;28;20032;-78
2022/10/06 02:07:37;;;;;;;88.68;35.70;;;;;;;11.25;100.00;93562.06;5044978;28;20025;-77
2022/10/06 02:10:04;;;;;;;81.38;35.67;;;;;;;11.26;100.00;93568.13;5034490;28;20116;-78
2022/10/06 02:12:31;;;;;;;77.57;35.15;;;;;;;11.23;100.00;93561.53;5033839;28;20033;-79
2022/10/06 02:14:58;;;;;;;84.80;34.95;;;;;;;11.24;100.00;93564.97;5053085;28;20044;-78
2022/10/06 02:17:24;;;;;;;77.68;34.90;;;;;;;11.22;100.00;93562.59;5034459;28;20048;-78
2022/10/06 02:19:50;;;;;;;81.60;33.47;;;;;;;11.22;100.00;93561.81;5015637;28;20119;-78
2022/10/06 02:22:16;;;;;;;82.85;32.92;;;;;;;11.13;100.00;93547.69;5032035;28;20063;-78
2022/10/06 02:24:41;;;;;;;78.20;32.58;;;;;;;11.13;100.00;93558.16;5013915;28;20021;-78
2022/10/06 02:27:07;;;;;;;82.55;34.65;;;;;;;11.13;100.00;93552.94;5032815;28;20044;-78
2022/10/06 02:29:33;;;;;;;84.00;35.60;;;;;;;11.13;100.00;93556.31;5024698;28;20043;-78
2022/10/06 02:31:59;;;;;;;84.85;35.10;;;;;;;11.11;100.00;93557.66;5037542;28;20111;-78
2022/10/06 02:34:25;;;;;;;81.65;35.35;;;;;;;11.12;100.00;93556.56;5021275;28;20458;-78
2022/10/06 02:36:51;;;;;;;88.15;35.72;;;;;;;11.11;100.00;93552.41;5018369;28;20099;-78
2022/10/06 02:39:17;;;;;;;85.95;34.80;;;;;;;11.11;100.00;93549.78;5032291;28;20025;-78
2022/10/06 02:41:43;;;;;;;85.75;36.70;;;;;;;11.08;100.00;93547.66;5033435;28;20036;-78
2022/10/06 02:44:08;;;;;;;83.80;35.22;;;;;;;11.04;100.00;93545.59;5036790;28;20520;-78
2022/10/06 02:46:36;;;;;;;88.15;36.67;;;;;;;11.04;100.00;93545.59;5020438;28;20032;-77
2022/10/06 02:49:01;;;;;;;89.97;36.38;;;;;;;11.03;100.00;93537.97;5055112;28;20033;-77
2022/10/06 02:51:30;;;;;;;87.32;37.20;;;;;;;11.02;100.00;93539.81;5004361;28;20386;-77
2022/10/06 02:53:55;;;;;;;88.05;37.33;;;;;;;11.03;100.00;93543.22;5038149;28;20065;-77
2022/10/06 02:56:24;;;;;;;100.72;38.40;;;;;;;11.03;100.00;93544.03;5020411;28;20084;-77
2022/10/06 02:58:51;;;;;;;92.75;37.00;;;;;;;11.01;100.00;93543.50;5066074;28;20067;-77
2022/10/06 03:01:27;;;;;;;92.10;39.15;;;;;;;11.00;100.00;93544.53;5040237;28;20059;-77
2022/10/06 03:03:56;;;;;;;100.40;38.58;;;;;;;10.99;100.00;93545.59;5045102;28;20112;-77
2022/10/06 03:06:25;;;;;;;100.97;39.17;;;;;;;10.99;100.00;93540.34;5008154;28;20144;-77
2022/10/06 03:09:11;;;;;;;114.80;41.50;;;;;;;10.99;100.00;93542.97;5017386;28;20033;-77
2022/10/06 03:11:41;;;;;;;101.60;40.47;;;;;;;10.98;100.00;93540.59;5013299;28;20569;-78
2022/10/06 03:14:09;;;;;;;102.50;39.55;;;;;;;10.98;100.00;93541.38;5017895;28;20388;-77
2022/10/06 03:16:38;;;;;;;102.35;40.10;;;;;;;10.99;100.00;93536.94;5010320;28;21397;-78
2022/10/06 03:19:08;;;;;;;96.35;40.55;;;;;;;10.98;100.00;93536.13;5037399;28;20076;-77
2022/10/06 03:21:37;;;;;;;93.25;38.63;;;;;;;10.96;100.00;93540.84;5041747;28;20470;-77
2022/10/06 03:24:03;;;;;;;97.22;38.88;;;;;;;10.97;100.00;93539.81;5037081;28;20037;-77
2022/10/06 03:26:32;;;;;;;97.22;39.45;;;;;;;10.97;100.00;93539.81;5030842;28;20530;-77
2022/10/06 03:28:59;;;;;;;99.25;39.42;;;;;;;10.95;100.00;93552.41;5028409;28;20063;-77
2022/10/06 03:31:25;;;;;;;97.78;39.92;;;;;;;10.94;100.00;93553.47;5027469;28;20036;-77
2022/10/06 03:33:53;;;;;;;96.70;37.75;;;;;;;10.94;100.00;93555.28;5047659;28;20414;-77
2022/10/06 03:36:21;;;;;;;95.65;39.53;;;;;;;10.91;100.00;93548.72;5037144;28;20037;-78
2022/10/06 03:38:47;;;;;;;97.97;40.03;;;;;;;10.89;100.00;93542.97;5055538;28;20032;-77
2022/10/06 03:41:15;;;;;;;80.10;35.30;;;;;;;10.92;100.00;93552.94;5037335;28;20041;-77
2022/10/06 03:43:42;;;;;;;93.55;35.65;;;;;;;10.90;100.00;93552.41;5036318;28;20032;-77
2022/10/06 03:46:10;;;;;;;91.22;37.65;;;;;;;10.90;100.00;93548.97;5035465;28;20052;-77
2022/10/06 03:48:37;;;;;;;93.05;37.13;;;;;;;10.87;100.00;93547.66;5036862;28;20541;-77
2022/10/06 03:51:05;;;;;;;89.38;36.90;;;;;;;10.88;100.00;93551.88;5053947;28;20033;-77
2022/10/06 03:53:32;;;;;;;92.53;37.13;;;;;;;10.89;100.00;93557.91;5051362;28;20184;-77
2022/10/06 03:56:05;;;;;;;79.03;35.50;;;;;;;10.87;100.00;93549.50;5019802;28;20088;-78
2022/10/06 03:58:34;;;;;;;93.43;36.00;;;;;;;10.86;100.00;93553.19;5036277;28;20029;-77
2022/10/06 04:01:06;;;;;;;91.90;35.08;;;;;;;10.83;100.00;93549.25;5010702;28;20035;-77
2022/10/06 04:03:32;;;;;;;88.90;36.42;;;;;;;10.82;100.00;93552.91;5023793;28;20028;-77
2022/10/06 04:06:00;;;;;;;90.55;36.10;;;;;;;10.81;100.00;93551.34;5052123;28;20037;-77
2022/10/06 04:08:27;;;;;;;80.22;36.00;;;;;;;10.80;100.00;93544.53;5029318;28;20077;-77
2022/10/06 04:10:54;;;;;;;83.25;34.30;;;;;;;10.79;100.00;93545.59;5031308;28;20036;-77
2022/10/06 04:13:21;;;;;;;84.72;35.10;;;;;;;10.79;100.00;93543.75;5034345;28;20383;-77
2022/10/06 04:15:48;;;;;;;89.18;36.10;;;;;;;10.78;100.00;93541.38;5018568;28;20051;-77
2022/10/06 04:18:15;;;;;;;83.50;36.42;;;;;;;10.78;100.00;93541.38;5035384;28;20132;-77
2022/10/06 04:20:41;;;;;;;88.68;36.15;;;;;;;10.77;100.00;93545.84;5038048;28;20068;-77
2022/10/06 04:23:08;;;;;;;94.15;35.20;;;;;;;10.77;100.00;93543.22;5013415;28;20053;-77
2022/10/06 04:25:33;;;;;;;79.65;33.83;;;;;;;10.78;100.00;93538.75;4992367;28;20033;-77
2022/10/06 04:27:59;;;;;;;84.78;35.47;;;;;;;10.76;100.00;93535.63;5015517;28;20441;-77
2022/10/06 04:30:26;;;;;;;80.60;34.97;;;;;;;10.74;100.00;93541.13;5032068;28;20516;-77
2022/10/06 04:32:52;;;;;;;84.18;35.38;;;;;;;10.72;100.00;93537.97;5015455;28;20453;-77
2022/10/06 04:35:19;;;;;;;87.78;34.42;;;;;;;10.74;100.00;93542.94;5030043;28;20049;-78
2022/10/06 04:37:45;;;;;;;85.85;36.58;;;;;;;10.73;100.00;93544.00;5033548;28;20087;-77
2022/10/06 04:40:11;;;;;;;85.03;35.10;;;;;;;10.71;100.00;93546.09;5047005;28;20370;-78
2022/10/06 04:42:39;;;;;;;80.45;34.78;;;;;;;10.71;100.00;93546.09;5001095;28;20025;-78
2022/10/06 04:45:08;;;;;;;78.78;34.78;;;;;;;10.72;100.00;93547.69;5017471;28;20116;-78
2022/10/06 04:47:35;;;;;;;79.00;33.35;;;;;;;10.70;100.00;93555.00;5015278;28;20048;-78
2022/10/06 04:50:02;;;;;;;90.95;33.70;;;;;;;10.69;100.00;93554.19;5028889;28;20029;-78
2022/10/06 04:52:28;;;;;;;81.75;32.15;;;;;;;10.69;100.00;93551.56;5030898;28;20025;-78
2022/10/06 04:54:54;;;;;;;71.38;31.35;;;;;;;10.69;100.00;93556.03;5031149;28;20032;-77
2022/10/06 04:57:19;;;;;;;66.72;30.08;;;;;;;10.67;100.00;93558.13;5025228;28;20041;-77
2022/10/06 05:02:41;;;;;;;64.68;27.67;;;;;;;10.66;100.00;93554.72;5037770;28;20040;-79
2022/10/06 05:05:07;;;;;;;61.10;28.65;;;;;;;10.69;100.00;93558.66;5038418;28;20049;-79
2022/10/06 05:07:33;;;;;;;63.22;27.05;;;;;;;10.67;100.00;93561.53;5057834;28;20290;-80
2022/10/06 05:09:58;;;;;;;69.72;28.63;;;;;;;10.68;100.00;93564.94;5040604;28;20091;-79
2022/10/06 05:12:25;;;;;;;61.33;26.77;;;;;;;10.68;100.00;93562.34;5032749;28;20036;-80
2022/10/06 05:14:50;;;;;;;56.83;25.42;;;;;;;10.68;100.00;93552.63;5028870;28;20419;-80
2022/10/06 05:17:16;;;;;;;55.65;24.55;;;;;;;10.68;100.00;93559.72;5040150;28;20044;-80
2022/10/06 05:19:42;;;;;;;56.72;25.38;;;;;;;10.67;100.00;93558.13;5036029;28;20049;-79
2022/10/06 05:22:08;;;;;;;56.33;25.27;;;;;;;10.65;100.00;93557.59;5014448;28;20040;-80
2022/10/06 05:24:34;;;;;;;55.20;25.17;;;;;;;10.63;100.00;93558.66;4997468;28;20045;-79
2022/10/06 05:27:02;;;;;;;59.25;26.02;;;;;;;10.65;100.00;93565.44;5015587;28;20365;-79
2022/10/06 05:29:28;;;;;;;54.00;24.85;;;;;;;10.63;100.00;93566.50;5035147;28;20017;-79
2022/10/06 05:31:54;;;;;;;49.70;23.80;;;;;;;10.59;100.00;93565.44;5037527;28;20047;-79
2022/10/06 05:34:20;;;;;;;53.92;25.33;;;;;;;10.57;100.00;93572.78;5038602;28;20049;-81
2022/10/06 05:36:46;;;;;;;64.05;24.42;;;;;;;10.55;100.00;93577.47;5038077;28;20029;-78
2022/10/06 05:39:12;;;;;;;50.92;24.42;;;;;;;10.55;100.00;93582.72;5043278;28;20036;-79
2022/10/06 05:41:44;;;;;;;52.67;23.80;;;;;;;10.57;100.00;93579.84;5061327;28;20051;-79
2022/10/06 05:44:12;;;;;;;51.25;25.33;;;;;;;10.61;100.00;93576.47;5059641;28;20032;-79
2022/10/06 05:46:39;;;;;;;56.08;25.52;;;;;;;10.74;100.00;93569.13;5042290;28;20103;-79
2022/10/06 05:49:09;;;;;;;53.63;24.75;;;;;;;10.99;100.00;93577.03;5041501;28;20045;-79
2022/10/06 05:51:37;;;;;;;55.25;24.42;;;;;;;11.31;100.00;93575.19;5009315;28;20082;-80
2022/10/06 05:54:07;;;;;;;51.97;24.60;;;;;;;11.69;100.00;93575.66;5041274;28;20041;-79
2022/10/06 05:56:36;;;;;;;53.50;25.27;;;;;;;12.08;100.00;93578.44;5058867;28;20429;-79
2022/10/06 05:59:03;;;;;;;54.47;23.88;;;;;;;12.47;100.00;93575.13;5042764;28;20032;-79
2022/10/06 06:01:33;;;;;;;56.65;24.40;;;;;;;12.85;100.00;93575.44;5041069;28;20037;-77
2022/10/06 06:04:02;;;;;;;56.03;24.52;;;;;;;13.02;100.00;93575.84;5040880;28;20116;-79
2022/10/06 06:06:31;;;;;;;48.35;22.23;;;;;;;13.47;100.00;93581.81;5040651;28;20040;-77
2022/10/06 06:09:09;;;;;;;46.03;21.88;;;;;;;13.93;98.13;93578.72;5039550;28;20051;-78
2022/10/06 06:11:38;;;;;;;47.67;22.20;;;;;;;14.29;95.11;93591.50;5040334;28;20029;-77
2022/10/06 06:14:13;;;;;;;47.58;22.38;;;;;;;14.73;93.08;93590.44;5041343;28;20028;-79
2022/10/06 06:16:40;;;;;;;45.60;22.20;;;;;;;15.15;88.24;93591.44;5042096;28;20107;-79
2022/10/06 06:19:07;;;;;;;42.88;20.80;;;;;;;15.64;87.67;93599.09;5030899;28;20051;-79
2022/10/06 06:21:35;;;;;;;43.65;22.10;;;;;;;16.02;86.06;93602.41;5049018;28;20037;-79
2022/10/06 06:24:02;;;;;;;43.33;22.70;;;;;;;16.14;85.14;93596.66;5047520;28;20043;-79
2022/10/06 06:26:31;;;;;;;45.47;22.17;;;;;;;16.53;82.59;93590.09;5048934;28;20487;-79
2022/10/06 06:29:02;;;;;;;46.60;22.60;;;;;;;17.06;78.86;93598.19;5048550;28;20029;-79
2022/10/06 06:31:31;;;;;;;47.25;22.92;;;;;;;17.46;74.73;93600.22;5049219;28;20040;-79
2022/10/06 06:33:58;;;;;;;48.00;23.10;;;;;;;17.66;75.03;93599.72;5031299;28;20043;-79
2022/10/06 06:36:28;;;;;;;38.13;19.58;;;;;;;17.76;75.89;93597.91;5047361;28;20090;-79
2022/10/06 06:38:56;;;;;;;42.75;20.75;;;;;;;17.92;74.21;93601.75;5046939;28;20079;-79
2022/10/06 06:41:27;;;;;;;46.70;22.55;;;;;;;17.92;73.39;93601.75;5065225;28;20033;-79
2022/10/06 06:44:00;;;;;;;40.88;22.10;;;;;;;18.35;71.19;93608.31;5047538;28;20482;-79
2022/10/06 06:46:34;;;;;;;43.58;22.60;;;;;;;18.70;68.53;93606.53;5048039;28;20094;-79
2022/10/06 06:49:04;;;;;;;42.15;22.48;;;;;;;19.08;66.66;93598.81;5043097;28;20524;-79
2022/10/06 06:51:41;;;;;;;42.70;22.13;;;;;;;19.33;67.88;93605.22;5034309;28;20041;-79
2022/10/06 06:54:09;;;;;;;43.15;21.75;;;;;;;20.07;64.66;93610.59;5048303;28;20495;-79
2022/10/06 06:56:38;;;;;;;45.20;22.35;;;;;;;20.59;64.30;93611.16;5049061;28;20035;-79
2022/10/06 06:59:09;;;;;;;39.22;20.38;;;;;;;21.29;61.57;93615.28;5015488;28;20072;-79
2022/10/06 07:01:37;;;;;;;36.85;20.08;;;;;;;22.03;60.01;93611.00;5049454;28;20172;-78
2022/10/06 07:04:03;;;;;;;36.65;20.17;;;;;;;22.27;55.53;93620.16;5049630;28;20039;-79
2022/10/06 07:06:32;;;;;;;38.15;21.20;;;;;;;22.50;53.55;93618.66;5049692;28;20079;-80
2022/10/06 07:09:01;;;;;;;36.17;19.45;;;;;;;23.03;52.18;93619.53;5050132;28;20049;-80
2022/10/06 07:11:34;;;;;;;36.40;18.42;;;;;;;22.49;53.52;93619.75;5028712;28;20441;-79
2022/10/06 07:14:06;;;;;;;33.60;18.73;;;;;;;22.74;54.14;93620.56;5047394;28;20423;-79
2022/10/06 07:25:06;;;;;;;36.65;19.55;;;;;;;22.54;56.40;93635.56;5048608;28;20506;-79
2022/10/06 07:27:42;;;;;;;36.28;19.10;;;;;;;22.18;57.03;93631.72;5033049;28;20040;-80
2022/10/06 07:30:16;;;;;;;34.20;19.25;;;;;;;21.98;57.45;93637.88;5045376;28;20036;-79
2022/10/06 07:32:43;;;;;;;37.50;19.92;;;;;;;22.24;56.32;93635.72;5028956;28;20128;-79
2022/10/06 07:35:08;;;;;;;44.03;22.63;;;;;;;22.72;53.23;93630.78;5044405;28;20029;-80
2022/10/06 07:37:35;;;;;;;46.22;22.63;;;;;;;22.41;54.44;93636.66;5044325;28;20067;-80
2022/10/06 07:40:02;;;;;;;40.72;18.55;;;;;;;22.44;54.67;93633.31;5012187;28;20397;-78
2022/10/06 07:42:28;;;;;;;30.30;16.30;;;;;;;22.29;55.69;93634.75;5044131;28;20021;-79
2022/10/06 07:47:39;;;;;;;33.40;18.05;;;;;;;20.59;61.51;93640.44;5044042;28;20049;-79
2022/10/06 07:50:06;;;;;;;35.38;18.67;;;;;;;19.83;63.02;93645.66;5027458;28;20117;-80
2022/10/06 07:52:32;;;;;;;38.90;19.98;;;;;;;19.21;65.88;93644.88;5043069;28;20463;-79
2022/10/06 07:54:57;;;;;;;37.67;19.90;;;;;;;19.28;67.47;93639.88;5043399;28;20087;-79
2022/10/06 07:57:37;;;;;;;33.63;17.65;;;;;;;19.70;68.23;93645.53;5031161;28;20044;-77
2022/10/06 08:00:06;;;;;;;29.98;17.35;;;;;;;20.21;63.51;93639.63;5042991;28;20033;-78
2022/10/06 08:02:38;;;;;;;39.90;17.60;;;;;;;19.91;63.89;93639.56;5043095;28;20047;-78
2022/10/06 08:05:04;;;;;;;34.20;18.13;;;;;;;19.89;63.62;93647.06;5059853;28;20041;-78
2022/10/06 08:07:30;;;;;;;35.22;18.35;;;;;;;19.88;61.00;93651.59;5042473;28;20180;-81
2022/10/06 08:09:55;;;;;;;28.58;17.30;;;;;;;19.57;66.74;93657.06;5026112;28;20075;-79
2022/10/06 08:12:33;;;;;;;30.80;17.70;;;;;;;19.55;66.00;93653.94;5060081;28;20127;-78
2022/10/06 08:15:02;;;;;;;34.33;17.23;;;;;;;20.16;62.40;93656.53;5059159;28;20040;-79
2022/10/06 08:17:29;;;;;;;28.02;16.17;;;;;;;20.58;59.64;93649.53;5059429;28;20032;-78
2022/10/06 08:19:55;;;;;;;27.70;15.70;;;;;;;20.75;56.72;93661.94;5025011;28;20060;-81
2022/10/06 08:22:21;;;;;;;30.88;17.38;;;;;;;20.13;61.94;93652.63;5041962;28;20033;-79
2022/10/06 08:24:47;;;;;;;32.10;16.73;;;;;;;19.42;62.96;93653.00;5022746;28;20098;-80
2022/10/06 08:27:13;;;;;;;28.10;16.25;;;;;;;19.53;61.64;93659.56;5022704;28;20407;-80
2022/10/06 08:29:38;;;;;;;32.15;16.52;;;;;;;19.16;64.96;93666.25;5040647;28;20021;-80
2022/10/06 08:32:04;;;;;;;32.65;16.20;;;;;;;19.57;63.77;93662.38;5039272;28;20041;-79
2022/10/06 08:34:30;;;;;;;33.30;17.52;;;;;;;19.49;63.80;93661.28;5040433;28;20045;-80
2022/10/06 08:36:56;;;;;;;32.38;16.38;;;;;;;19.59;63.92;93670.00;5037426;28;20190;-80
2022/10/06 08:39:21;;;;;;;30.90;16.65;;;;;;;19.85;61.99;93673.47;5021463;28;20080;-79
2022/10/06 08:41:50;;;;;;;33.25;18.13;;;;;;;19.67;58.20;93672.66;5018989;28;20514;-79
2022/10/06 08:44:31;;;;;;;33.72;17.73;;;;;;;19.46;57.94;93672.53;5054951;28;20405;-76
2022/10/06 08:47:03;;;;;;;40.35;17.75;;;;;;;19.30;62.92;93669.56;5045318;28;20040;-76
2022/10/06 08:49:37;;;;;;;36.38;16.52;;;;;;;19.05;64.17;93681.72;5051433;28;20037;-77
2022/10/06 08:52:30;;;;;;;47.15;24.73;;;;;;;19.20;62.44;93679.69;5033889;28;20029;-76
2022/10/06 08:55:23;;;;;;;45.85;23.80;;;;;;;19.37;62.62;93685.03;5047385;28;20070;-76
2022/10/06 08:58:16;;;;;;;56.55;26.75;;;;;;;18.97;62.39;93692.31;5033795;28;20051;-76
2022/10/06 09:00:42;;;;;;;48.28;24.90;;;;;;;18.54;62.83;93693.69;5032945;28;20044;-77
2022/10/06 09:03:22;;;;;;;50.25;26.20;;;;;;;18.70;62.73;93688.75;5014505;28;20033;-78
2022/10/06 09:05:51;;;;;;;51.45;23.85;;;;;;;18.72;63.91;93687.34;5031436;28;20043;-75
2022/10/06 09:08:17;;;;;;;52.05;23.35;;;;;;;18.46;65.46;93691.78;5033055;28;20123;-75
2022/10/06 09:11:11;;;;;;;46.85;24.40;;;;;;;18.50;65.64;93690.88;5051429;28;20116;-76
2022/10/06 09:13:52;;;;;;;46.25;25.50;;;;;;;18.58;66.29;93696.53;5049801;28;20033;-76
2022/10/06 09:16:27;;;;;;;50.58;25.83;;;;;;;18.68;64.81;93688.28;5017023;28;20499;-76
2022/10/06 09:19:08;;;;;;;58.67;26.88;;;;;;;18.53;66.52;93705.41;5033849;28;20051;-76
2022/10/06 09:21:37;;;;;;;42.83;22.75;;;;;;;18.43;69.18;93698.47;5051039;28;20047;-76
2022/10/06 09:24:33;;;;;;;49.40;23.50;;;;;;;18.56;68.02;93701.34;5039394;28;20021;-76
2022/10/06 09:27:11;;;;;;;48.40;26.63;;;;;;;18.47;67.03;93707.38;5010683;28;20052;-75
2022/10/06 09:29:37;;;;;;;54.28;25.13;;;;;;;18.40;68.57;93701.75;5031862;28;20407;-75
2022/10/06 09:32:03;;;;;;;47.22;24.90;;;;;;;18.47;68.21;93704.75;5013805;28;20208;-75
2022/10/06 09:34:39;;;;;;;52.00;26.33;;;;;;;18.37;70.57;93705.00;5031595;28;20057;-75
2022/10/06 09:37:11;;;;;;;58.85;27.70;;;;;;;18.43;69.74;93703.00;5013680;28;20041;-78
2022/10/06 09:39:43;;;;;;;42.10;20.30;;;;;;;18.75;70.33;93703.75;5031370;28;20045;-75
2022/10/06 09:42:08;;;;;;;57.97;30.08;;;;;;;18.93;68.46;93700.84;4997676;28;20037;-75
2022/10/06 09:44:43;;;;;;;48.13;24.77;;;;;;;19.10;68.19;93702.00;5031486;28;20083;-74
2022/10/06 09:47:43;;;;;;;51.92;26.20;;;;;;;18.91;68.12;93695.09;5013824;28;20040;-75
2022/10/06 09:50:16;;;;;;;49.53;24.95;;;;;;;19.40;67.59;93707.50;5013549;28;20087;-75
2022/10/06 09:53:00;;;;;;;57.22;27.42;;;;;;;19.42;66.38;93702.69;5030511;28;20068;-75
2022/10/06 09:55:32;;;;;;;50.42;26.67;;;;;;;19.35;66.39;93703.91;5039742;28;20068;-76
2022/10/06 09:58:00;;;;;;;51.95;29.33;;;;;;;19.12;66.46;93705.13;5051275;28;20128;-75
2022/10/06 10:00:31;;;;;;;52.47;28.45;;;;;;;19.23;66.56;93706.41;5033510;28;20060;-75
2022/10/06 10:03:00;;;;;;;55.20;27.20;;;;;;;19.64;66.01;93709.72;5033165;28;20119;-76
2022/10/06 10:05:29;;;;;;;52.38;26.45;;;;;;;19.68;64.57;93706.13;5017213;28;20551;-76
2022/10/06 10:08:13;;;;;;;55.15;28.08;;;;;;;18.97;67.77;93697.59;5051527;28;20028;-75
2022/10/06 10:10:39;;;;;;;51.90;27.42;;;;;;;19.34;66.85;93705.00;5050878;28;20029;-75
2022/10/06 10:13:23;;;;;;;53.22;26.45;;;;;;;19.15;67.60;93704.50;5051235;28;20051;-75
2022/10/06 10:15:57;;;;;;;49.15;24.77;;;;;;;19.40;68.66;93707.50;5050477;28;20426;-75
2022/10/06 10:18:25;;;;;;;47.00;25.95;;;;;;;19.34;68.11;93702.38;5030879;28;20470;-75
2022/10/06 10:20:56;;;;;;;43.17;21.63;;;;;;;19.29;68.32;93699.84;5013823;28;20479;-75
2022/10/06 10:23:24;;;;;;;45.50;23.40;;;;;;;19.23;69.32;93698.44;5031512;28;20057;-75
2022/10/06 10:26:00;;;;;;;37.80;20.75;;;;;;;19.13;70.12;93696.06;5014237;28;20033;-75
2022/10/06 10:28:34;;;;;;;47.00;25.55;;;;;;;18.88;68.75;93694.94;5014426;28;20052;-75
2022/10/06 10:31:24;;;;;;;59.25;31.73;;;;;;;18.42;70.33;93698.81;4997510;28;20120;-75
2022/10/06 10:34:24;;;;;;;54.08;28.05;;;;;;;18.76;71.17;93695.50;5016293;28;20132;-76
2022/10/06 10:37:03;;;;;;;50.45;28.45;;;;;;;18.79;69.64;93697.56;5050624;28;20029;-76
2022/10/06 10:39:39;;;;;;;59.10;29.67;;;;;;;18.92;69.49;93686.03;5032303;28;20043;-76
2022/10/06 10:42:16;;;;;;;51.05;27.10;;;;;;;18.87;70.78;93694.16;5021840;28;20061;-76
2022/10/06 10:44:53;;;;;;;50.40;26.92;;;;;;;18.91;70.01;93691.66;5029976;28;20040;-76
2022/10/06 10:47:36;;;;;;;45.72;25.25;;;;;;;18.71;71.83;93687.66;5050764;28;20123;-77
2022/10/06 10:50:20;;;;;;;47.67;26.02;;;;;;;18.79;72.72;93692.25;5049700;28;20041;-77
2022/10/06 10:52:49;;;;;;;53.40;28.13;;;;;;;18.76;71.58;93684.88;5047559;28;20064;-77
2022/10/06 10:55:17;;;;;;;49.42;25.98;;;;;;;18.73;70.30;93688.94;5047715;28;20032;-77
2022/10/06 10:57:45;;;;;;;44.00;23.42;;;;;;;18.75;71.56;93678.00;5049958;28;20498;-77
2022/10/06 11:00:20;;;;;;;53.30;28.55;;;;;;;18.76;69.32;93686.75;5014671;28;20033;-77
2022/10/06 11:02:46;;;;;;;57.08;29.05;;;;;;;18.77;71.39;93678.50;5014905;28;20029;-77
2022/10/06 11:05:41;;;;;;;55.08;29.48;;;;;;;19.12;69.19;93675.94;5008273;28;20029;-77
2022/10/06 11:08:32;;;;;;;56.83;30.38;;;;;;;19.12;68.88;93671.41;5073616;28;20711;-77
2022/10/06 11:11:01;;;;;;;48.00;24.00;;;;;;;19.30;66.05;93677.53;5060948;28;20033;-77
2022/10/06 11:13:32;;;;;;;50.40;26.58;;;;;;;19.29;69.72;93673.28;5049965;28;20123;-77
2022/10/06 11:16:10;;;;;;;49.97;27.23;;;;;;;19.31;68.51;93665.81;5035298;28;20032;-77
2022/10/06 11:18:40;;;;;;;61.72;29.85;;;;;;;19.03;67.32;93664.53;5053172;28;20076;-77
2022/10/06 11:21:13;;;;;;;56.70;28.40;;;;;;;18.68;68.02;93665.19;5053474;28;20029;-77
2022/10/06 11:23:49;;;;;;;45.63;23.48;;;;;;;18.51;70.36;93665.16;5050807;28;20064;-77
2022/10/06 11:26:35;;;;;;;51.00;26.27;;;;;;;18.24;71.85;93674.09;5053356;28;20040;-75
2022/10/06 11:29:00;;;;;;;55.17;26.63;;;;;;;18.08;74.05;93663.88;5053473;28;20406;-77
2022/10/06 11:31:41;;;;;;;57.63;28.50;;;;;;;18.66;70.68;93662.06;5047441;28;20055;-74
2022/10/06 11:34:08;;;;;;;53.30;29.25;;;;;;;18.92;69.50;93678.09;5035251;28;20029;-75
2022/10/06 11:36:41;;;;;;;49.72;26.20;;;;;;;18.92;70.55;93667.47;5052692;28;20158;-74
2022/10/06 11:39:28;;;;;;;51.70;25.33;;;;;;;18.95;69.09;93657.34;5037188;28;20029;-74
2022/10/06 11:42:02;;;;;;;61.58;28.80;;;;;;;18.36;72.61;93662.91;5053948;28;20086;-74